createdAt,value
2022-08-22T00:00:58.217Z,9.681006
2022-08-22T00:01:58.235Z,9.681064
2022-08-22T00:02:44.175Z,9.681182
2022-08-22T00:02:48.064Z,9.681077
2022-08-22T00:03:06.480Z,9.680791
2022-08-22T00:03:16.331Z,9.681254
2022-08-22T00:03:17.643Z,9.680872
2022-08-22T00:03:59.202Z,9.680672
2022-08-22T00:04:58.175Z,9.681295
2022-08-22T00:05:58.201Z,9.681274
2022-08-22T00:06:58.184Z,9.681100
2022-08-22T00:07:58.321Z,9.681174
2022-08-22T00:08:58.180Z,9.681052
2022-08-22T00:09:58.142Z,9.681085
2022-08-22T00:10:58.138Z,9.680713
2022-08-22T00:11:58.126Z,9.680925
2022-08-22T00:12:58.115Z,9.681151
2022-08-22T00:14:01.588Z,9.680923
2022-08-22T00:14:58.121Z,9.680821
2022-08-22T00:15:58.093Z,9.681549
2022-08-22T00:16:58.081Z,9.681085
2022-08-22T00:17:58.178Z,9.681518
2022-08-22T00:18:58.067Z,9.681396
2022-08-22T00:19:58.056Z,9.681226
2022-08-22T00:20:58.073Z,9.681280
2022-08-22T00:21:58.044Z,9.681397
2022-08-22T00:22:58.038Z,9.681528
2022-08-22T00:23:58.038Z,9.681227
2022-08-22T00:24:58.017Z,9.680660
2022-08-22T00:25:58.017Z,9.680893
2022-08-22T00:26:58.029Z,9.681135
2022-08-22T00:27:58.235Z,9.681108
2022-08-22T00:28:57.994Z,9.681410
2022-08-22T00:29:57.978Z,9.681385
2022-08-22T00:30:57.974Z,9.681249
2022-08-22T00:31:57.987Z,9.681463
2022-08-22T00:32:57.955Z,9.681502
2022-08-22T00:33:57.949Z,9.681672
2022-08-22T00:34:57.986Z,9.680699
2022-08-22T00:35:57.936Z,9.681108
2022-08-22T00:36:57.922Z,9.681300
2022-08-22T00:37:58.015Z,9.681138
2022-08-22T00:38:57.904Z,9.681172
2022-08-22T00:39:57.924Z,9.681334
2022-08-22T00:40:57.921Z,9.681021
2022-08-22T00:41:57.905Z,9.680935
2022-08-22T00:42:57.875Z,9.681300
2022-08-22T00:43:57.875Z,9.681168
2022-08-22T00:44:57.877Z,9.681278
2022-08-22T00:45:57.864Z,9.681513
2022-08-22T00:46:57.849Z,9.681604
2022-08-22T00:47:58.017Z,9.681388
2022-08-22T00:48:57.831Z,9.681531
2022-08-22T00:49:57.839Z,9.682143
2022-08-22T00:50:57.815Z,9.681834
2022-08-22T00:51:57.807Z,9.681481
2022-08-22T00:52:57.792Z,9.681538
2022-08-22T00:53:57.786Z,9.681263
2022-08-22T00:54:57.796Z,9.681041
2022-08-22T00:55:57.765Z,9.681544
2022-08-22T00:56:57.761Z,9.681405
2022-08-22T00:57:57.908Z,9.681742
2022-08-22T00:58:57.745Z,9.681211
2022-08-22T00:59:57.760Z,9.681067
2022-08-22T01:00:57.765Z,9.681239
2022-08-22T01:01:57.734Z,9.681347
2022-08-22T01:02:57.720Z,9.680872
2022-08-22T01:03:57.701Z,9.681320
2022-08-22T01:04:57.718Z,9.681412
2022-08-22T01:05:57.693Z,9.681191
2022-08-22T01:06:57.694Z,9.681367
2022-08-22T01:07:57.775Z,9.681455
2022-08-22T01:08:57.681Z,9.681499
2022-08-22T01:09:57.684Z,9.681478
2022-08-22T01:10:57.656Z,9.680892
2022-08-22T01:11:57.646Z,9.680667
2022-08-22T01:12:57.629Z,9.681271
2022-08-22T01:13:57.633Z,9.681222
2022-08-22T01:14:57.620Z,9.681100
2022-08-22T01:15:57.636Z,9.681483
2022-08-22T01:16:57.608Z,9.681371
2022-08-22T01:17:57.695Z,9.681279
2022-08-22T01:18:57.613Z,9.680914
2022-08-22T01:19:57.580Z,9.681116
2022-08-22T01:20:57.576Z,9.681051
2022-08-22T01:21:57.572Z,9.681299
2022-08-22T01:22:57.559Z,9.681260
2022-08-22T01:23:57.537Z,9.681218
2022-08-22T01:24:57.562Z,9.681353
2022-08-22T01:25:57.530Z,9.680977
2022-08-22T01:26:57.524Z,9.681129
2022-08-22T01:27:57.801Z,9.681206
2022-08-22T01:28:57.532Z,9.680805
2022-08-22T01:29:57.499Z,9.680699
2022-08-22T01:30:57.483Z,9.680860
2022-08-22T01:31:57.486Z,9.681261
2022-08-22T01:32:57.473Z,9.681194
2022-08-22T01:33:57.464Z,9.680883
2022-08-22T01:34:57.476Z,9.681067
2022-08-22T01:35:57.485Z,9.681204
2022-08-22T01:36:57.447Z,9.681254
2022-08-22T01:37:57.641Z,9.681443
2022-08-22T01:38:57.441Z,9.681057
2022-08-22T01:39:57.446Z,9.681060
2022-08-22T01:40:57.415Z,9.681367
2022-08-22T01:41:57.420Z,9.681387
2022-08-22T01:42:57.390Z,9.680649
2022-08-22T01:44:00.567Z,9.680405
2022-08-22T01:44:57.391Z,9.680523
2022-08-22T01:45:57.376Z,9.681279
2022-08-22T01:46:57.368Z,9.680769
2022-08-22T01:47:57.491Z,9.680535
2022-08-22T01:48:57.371Z,9.681243
2022-08-22T01:49:57.340Z,9.681117
2022-08-22T01:50:57.333Z,9.680659
2022-08-22T01:51:57.323Z,9.681188
2022-08-22T01:52:57.336Z,9.681290
2022-08-22T01:53:57.336Z,9.680085
2022-08-22T01:54:57.294Z,9.680526
2022-08-22T01:55:57.289Z,9.679789
2022-08-22T01:56:57.295Z,9.680636
2022-08-22T01:57:57.389Z,9.681020
2022-08-22T01:58:57.262Z,9.681247
2022-08-22T01:59:57.249Z,9.681247
2022-08-22T02:00:57.273Z,9.681329
2022-08-22T02:01:57.232Z,9.681374
2022-08-22T02:02:57.244Z,9.680979
2022-08-22T02:03:57.226Z,9.680850
2022-08-22T02:04:57.200Z,9.680274
2022-08-22T02:05:57.199Z,9.680503
2022-08-22T02:06:57.189Z,9.680918
2022-08-22T02:07:57.344Z,9.681028
2022-08-22T02:08:57.198Z,9.681000
2022-08-22T02:09:57.164Z,9.681200
2022-08-22T02:10:57.157Z,9.680008
2022-08-22T02:11:57.145Z,9.679939
2022-08-22T02:12:57.128Z,9.680346
2022-08-22T02:13:57.139Z,9.680634
2022-08-22T02:14:57.143Z,9.680781
2022-08-22T02:15:57.119Z,9.680735
2022-08-22T02:16:57.097Z,9.680795
2022-08-22T02:17:57.162Z,9.680672
2022-08-22T02:18:57.103Z,9.680663
2022-08-22T02:19:57.091Z,9.680926
2022-08-22T02:20:57.067Z,9.680981
2022-08-22T02:21:57.087Z,9.681037
2022-08-22T02:22:57.053Z,9.680938
2022-08-22T02:23:57.058Z,9.680967
2022-08-22T02:24:57.031Z,9.681053
2022-08-22T02:25:57.046Z,9.681213
2022-08-22T02:26:57.017Z,9.681119
2022-08-22T02:27:57.140Z,9.681083
2022-08-22T02:28:57.853Z,9.681146
2022-08-22T02:29:57.028Z,9.681524
2022-08-22T02:30:56.992Z,9.681682
2022-08-22T02:31:56.979Z,9.681642
2022-08-22T02:32:57.007Z,9.681279
2022-08-22T02:33:56.963Z,9.681374
2022-08-22T02:34:56.944Z,9.681404
2022-08-22T02:35:56.937Z,9.681697
2022-08-22T02:36:58.205Z,9.681252
2022-08-22T02:37:57.098Z,9.681293
2022-08-22T02:38:56.941Z,9.681013
2022-08-22T02:39:56.927Z,9.681039
2022-08-22T02:40:56.911Z,9.681347
2022-08-22T02:41:56.883Z,9.681353
2022-08-22T02:42:56.873Z,9.681440
2022-08-22T02:43:56.865Z,9.681438
2022-08-22T02:44:56.873Z,9.681787
2022-08-22T02:45:56.867Z,9.681089
2022-08-22T02:46:56.844Z,9.680661
2022-08-22T02:47:56.971Z,9.680616
2022-08-22T02:48:56.845Z,9.680565
2022-08-22T02:49:56.822Z,9.680666
2022-08-22T02:50:56.826Z,9.680798
2022-08-22T02:51:56.807Z,9.680988
2022-08-22T02:52:56.787Z,9.681196
2022-08-22T02:53:56.781Z,9.681112
2022-08-22T02:54:56.771Z,9.680967
2022-08-22T02:55:56.768Z,9.681160
2022-08-22T02:56:56.771Z,9.681173
2022-08-22T02:57:56.757Z,9.680969
2022-08-22T02:58:59.113Z,9.681158
2022-08-22T02:59:56.743Z,9.680821
2022-08-22T03:00:56.776Z,9.680464
2022-08-22T03:01:56.741Z,9.680307
2022-08-22T03:02:56.716Z,9.680206
2022-08-22T03:03:56.709Z,9.680498
2022-08-22T03:04:56.696Z,9.680792
2022-08-22T03:06:00.505Z,9.680708
2022-08-22T03:06:56.710Z,9.680737
2022-08-22T03:07:56.673Z,9.680893
2022-08-22T03:08:56.663Z,9.680949
2022-08-22T03:09:56.650Z,9.681081
2022-08-22T03:10:56.651Z,9.681035
2022-08-22T03:11:56.642Z,9.680911
2022-08-22T03:12:57.662Z,9.680912
2022-08-22T03:13:56.621Z,9.680951
2022-08-22T03:14:56.607Z,9.681084
2022-08-22T03:15:56.597Z,9.681224
2022-08-22T03:16:56.593Z,9.681196
2022-08-22T03:17:56.607Z,9.681079
2022-08-22T03:18:56.577Z,9.681082
2022-08-22T03:19:56.563Z,9.681093
2022-08-22T03:20:56.558Z,9.681112
2022-08-22T03:21:56.548Z,9.681217
2022-08-22T03:22:56.566Z,9.681043
2022-08-22T03:23:56.523Z,9.680958
2022-08-22T03:24:56.541Z,9.681078
2022-08-22T03:25:56.516Z,9.680901
2022-08-22T03:26:56.511Z,9.681066
2022-08-22T03:27:56.592Z,9.680954
2022-08-22T03:28:59.785Z,9.681096
2022-08-22T03:29:56.477Z,9.680934
2022-08-22T03:30:56.489Z,9.680896
2022-08-22T03:31:56.470Z,9.681102
2022-08-22T03:32:56.455Z,9.681144
2022-08-22T03:33:56.463Z,9.681116
2022-08-22T03:34:56.434Z,9.681273
2022-08-22T03:35:56.430Z,9.681197
2022-08-22T03:36:56.417Z,9.680898
2022-08-22T03:37:56.419Z,9.680871
2022-08-22T03:38:56.401Z,9.680905
2022-08-22T03:39:56.498Z,9.681132
2022-08-22T03:40:56.382Z,9.681126
2022-08-22T03:41:56.376Z,9.681146
2022-08-22T03:42:56.376Z,9.681215
2022-08-22T03:43:56.356Z,9.680884
2022-08-22T03:44:56.353Z,9.681016
2022-08-22T03:45:56.365Z,9.680872
2022-08-22T03:46:56.334Z,9.680583
2022-08-22T03:47:56.326Z,9.680965
2022-08-22T03:48:56.318Z,9.681465
2022-08-22T03:49:59.453Z,9.681442
2022-08-22T03:50:56.306Z,9.680860
2022-08-22T03:51:56.296Z,9.681103
2022-08-22T03:52:56.305Z,9.681179
2022-08-22T03:53:56.277Z,9.681591
2022-08-22T03:54:56.267Z,9.680946
2022-08-22T03:55:56.262Z,9.681010
2022-08-22T03:56:57.491Z,9.681112
2022-08-22T03:57:56.280Z,9.681218
2022-08-22T03:58:56.255Z,9.680901
2022-08-22T03:59:56.223Z,9.680876
2022-08-22T04:00:56.764Z,9.680794
2022-08-22T04:01:56.206Z,9.680976
2022-08-22T04:02:56.217Z,9.680888
2022-08-22T04:03:56.191Z,9.680736
2022-08-22T04:04:56.182Z,9.680987
2022-08-22T04:05:56.171Z,9.681131
2022-08-22T04:06:56.424Z,9.681145
2022-08-22T04:07:56.254Z,9.680981
2022-08-22T04:08:56.159Z,9.680933
2022-08-22T04:09:56.163Z,9.681334
2022-08-22T04:10:56.130Z,9.681170
2022-08-22T04:11:56.133Z,9.681187
2022-08-22T04:12:56.113Z,9.681157
2022-08-22T04:13:56.092Z,9.681032
2022-08-22T04:14:56.080Z,9.681092
2022-08-22T04:15:56.104Z,9.681520
2022-08-22T04:16:56.065Z,9.681475
2022-08-22T04:17:56.079Z,9.681273
2022-08-22T04:18:56.047Z,9.681314
2022-08-22T04:19:56.045Z,9.681475
2022-08-22T04:20:56.028Z,9.681180
2022-08-22T04:21:56.082Z,9.681235
2022-08-22T04:22:56.016Z,9.681025
2022-08-22T04:23:56.009Z,9.680589
2022-08-22T04:24:56.008Z,9.680796
2022-08-22T04:25:55.997Z,9.680738
2022-08-22T04:26:56.005Z,9.680909
2022-08-22T04:27:56.062Z,9.680650
2022-08-22T04:28:55.972Z,9.680716
2022-08-22T04:29:55.964Z,9.680322
2022-08-22T04:30:55.986Z,9.680685
2022-08-22T04:31:55.950Z,9.680448
2022-08-22T04:32:55.939Z,9.679985
2022-08-22T04:33:55.932Z,9.680324
2022-08-22T04:34:55.919Z,9.679637
2022-08-22T04:35:55.915Z,9.680055
2022-08-22T04:36:55.933Z,9.680296
2022-08-22T04:37:55.953Z,9.680239
2022-08-22T04:38:55.884Z,9.680111
2022-08-22T04:39:55.944Z,9.680434
2022-08-22T04:40:55.867Z,9.680384
2022-08-22T04:42:00.710Z,9.680264
2022-08-22T04:42:56.910Z,9.680261
2022-08-22T04:43:55.847Z,9.680244
2022-08-22T04:44:55.833Z,9.680547
2022-08-22T04:45:55.834Z,9.680485
2022-08-22T04:46:55.820Z,9.680123
2022-08-22T04:47:55.912Z,9.680061
2022-08-22T04:48:55.823Z,9.680009
2022-08-22T04:49:55.795Z,9.680042
2022-08-22T04:50:55.784Z,9.680197
2022-08-22T04:51:55.781Z,9.680484
2022-08-22T04:52:55.773Z,9.680447
2022-08-22T04:53:55.757Z,9.680679
2022-08-22T04:54:55.783Z,9.680182
2022-08-22T04:55:55.748Z,9.680448
2022-08-22T04:56:55.738Z,9.680264
2022-08-22T04:57:55.806Z,9.680210
2022-08-22T04:58:55.782Z,9.680613
2022-08-22T04:59:55.715Z,9.680519
2022-08-22T05:00:55.728Z,9.680150
2022-08-22T05:01:55.768Z,9.679865
2022-08-22T05:02:55.676Z,9.679865
2022-08-22T05:03:55.719Z,9.679865
2022-08-22T05:04:55.667Z,9.679865
2022-08-22T05:05:55.664Z,9.680099
2022-08-22T05:06:55.671Z,9.679977
2022-08-22T05:07:55.772Z,9.680292
2022-08-22T05:08:55.639Z,9.680387
2022-08-22T05:09:55.624Z,9.680140
2022-08-22T05:10:55.611Z,9.679981
2022-08-22T05:11:55.635Z,9.680696
2022-08-22T05:12:55.621Z,9.680470
2022-08-22T05:13:55.836Z,9.680942
2022-08-22T05:14:55.577Z,9.680767
2022-08-22T05:15:55.565Z,9.680808
2022-08-22T05:16:55.562Z,9.681185
2022-08-22T05:17:55.571Z,9.681450
2022-08-22T05:18:55.771Z,9.681619
2022-08-22T05:19:55.560Z,9.681666
2022-08-22T05:20:55.524Z,9.681502
2022-08-22T05:21:55.521Z,9.681378
2022-08-22T05:22:55.503Z,9.681406
2022-08-22T05:23:55.509Z,9.681204
2022-08-22T05:24:55.508Z,9.681277
2022-08-22T05:25:55.479Z,9.680920
2022-08-22T05:26:55.476Z,9.680990
2022-08-22T05:27:56.362Z,9.681047
2022-08-22T05:28:55.473Z,9.681122
2022-08-22T05:29:55.471Z,9.681108
2022-08-22T05:30:55.458Z,9.681158
2022-08-22T05:31:55.443Z,9.680933
2022-08-22T05:32:55.442Z,9.680952
2022-08-22T05:33:55.411Z,9.681184
2022-08-22T05:34:55.402Z,9.681049
2022-08-22T05:35:57.846Z,9.680882
2022-08-22T05:36:55.391Z,9.680897
2022-08-22T05:37:55.401Z,9.680309
2022-08-22T05:38:55.377Z,9.680660
2022-08-22T05:39:55.409Z,9.680936
2022-08-22T05:40:55.359Z,9.681375
2022-08-22T05:41:55.377Z,9.681355
2022-08-22T05:42:55.340Z,9.681175
2022-08-22T05:43:55.335Z,9.681093
2022-08-22T05:44:55.317Z,9.681388
2022-08-22T05:45:55.318Z,9.681499
2022-08-22T05:46:55.318Z,9.681322
2022-08-22T05:47:55.396Z,9.681212
2022-08-22T05:48:55.288Z,9.680836
2022-08-22T05:49:55.285Z,9.680651
2022-08-22T05:50:55.277Z,9.681003
2022-08-22T05:51:55.294Z,9.681048
2022-08-22T05:52:55.263Z,9.680861
2022-08-22T05:53:55.282Z,9.680654
2022-08-22T05:54:55.243Z,9.681453
2022-08-22T05:55:55.247Z,9.681785
2022-08-22T05:56:55.233Z,9.681670
2022-08-22T05:57:55.289Z,9.681759
2022-08-22T05:58:55.236Z,9.681456
2022-08-22T05:59:55.225Z,9.681144
2022-08-22T06:00:55.202Z,9.680895
2022-08-22T06:01:55.220Z,9.681186
2022-08-22T06:02:55.193Z,9.681384
2022-08-22T06:03:55.186Z,9.681041
2022-08-22T06:04:55.201Z,9.681120
2022-08-22T06:05:55.171Z,9.681215
2022-08-22T06:06:55.151Z,9.681404
2022-08-22T06:07:55.213Z,9.681048
2022-08-22T06:08:55.135Z,9.681212
2022-08-22T06:09:55.143Z,9.681404
2022-08-22T06:10:55.163Z,9.681634
2022-08-22T06:11:55.130Z,9.681274
2022-08-22T06:12:55.134Z,9.681672
2022-08-22T06:13:55.131Z,9.682046
2022-08-22T06:14:55.104Z,9.681463
2022-08-22T06:15:55.120Z,9.681340
2022-08-22T06:16:55.090Z,9.681742
2022-08-22T06:17:55.165Z,9.681212
2022-08-22T06:18:55.098Z,9.681138
2022-08-22T06:19:55.064Z,9.681085
2022-08-22T06:20:55.064Z,9.681294
2022-08-22T06:21:55.052Z,9.681211
2022-08-22T06:22:55.040Z,9.680958
2022-08-22T06:23:55.069Z,9.680835
2022-08-22T06:24:55.030Z,9.681121
2022-08-22T06:25:55.025Z,9.681356
2022-08-22T06:26:55.017Z,9.681391
2022-08-22T06:27:55.084Z,9.681030
2022-08-22T06:28:55.813Z,9.681182
2022-08-22T06:29:55.000Z,9.680954
2022-08-22T06:30:54.983Z,9.681010
2022-08-22T06:31:54.988Z,9.680875
2022-08-22T06:32:59.183Z,9.681011
2022-08-22T06:33:56.001Z,9.681122
2022-08-22T06:34:54.949Z,9.681081
2022-08-22T06:35:54.954Z,9.681310
2022-08-22T06:36:54.942Z,9.681275
2022-08-22T06:37:54.956Z,9.681294
2022-08-22T06:38:54.933Z,9.681414
2022-08-22T06:39:55.006Z,9.681288
2022-08-22T06:40:54.921Z,9.681215
2022-08-22T06:41:54.931Z,9.680942
2022-08-22T06:42:54.902Z,9.681025
2022-08-22T06:43:54.899Z,9.681328
2022-08-22T06:44:54.891Z,9.681259
2022-08-22T06:45:54.897Z,9.681222
2022-08-22T06:46:54.872Z,9.681411
2022-08-22T06:47:57.105Z,9.681119
2022-08-22T06:48:54.871Z,9.681060
2022-08-22T06:49:54.883Z,9.681034
2022-08-22T06:50:54.833Z,9.681024
2022-08-22T06:51:54.844Z,9.681114
2022-08-22T06:52:54.842Z,9.680980
2022-08-22T06:53:54.832Z,9.681136
2022-08-22T06:54:54.846Z,9.681170
2022-08-22T06:55:54.808Z,9.680874
2022-08-22T06:56:54.806Z,9.680930
2022-08-22T06:57:54.859Z,9.681059
2022-08-22T06:58:54.786Z,9.681067
2022-08-22T06:59:54.781Z,9.681290
2022-08-22T07:01:05.725Z,9.681026
2022-08-22T07:01:55.866Z,9.681102
2022-08-22T07:02:54.753Z,9.680944
2022-08-22T07:03:54.749Z,9.680978
2022-08-22T07:04:54.738Z,9.681087
2022-08-22T07:05:54.753Z,9.681079
2022-08-22T07:06:54.744Z,9.681365
2022-08-22T07:07:54.720Z,9.681276
2022-08-22T07:08:54.714Z,9.681094
2022-08-22T07:09:54.706Z,9.681223
2022-08-22T07:10:54.728Z,9.681097
2022-08-22T07:11:54.695Z,9.681111
2022-08-22T07:12:54.718Z,9.681157
2022-08-22T07:13:54.690Z,9.680983
2022-08-22T07:14:54.670Z,9.681018
2022-08-22T07:15:54.665Z,9.681025
2022-08-22T07:16:54.658Z,9.681206
2022-08-22T07:17:54.649Z,9.681182
2022-08-22T07:18:54.666Z,9.681410
2022-08-22T07:19:54.666Z,9.681316
2022-08-22T07:20:55.004Z,9.681280
2022-08-22T07:21:54.633Z,9.681076
2022-08-22T07:22:54.617Z,9.680919
2022-08-22T07:23:54.618Z,9.681161
2022-08-22T07:24:54.611Z,9.680969
2022-08-22T07:25:54.619Z,9.681211
2022-08-22T07:26:54.603Z,9.680955
2022-08-22T07:27:54.654Z,9.681067
2022-08-22T07:28:58.670Z,9.681095
2022-08-22T07:29:54.573Z,9.681191
2022-08-22T07:30:54.588Z,9.681140
2022-08-22T07:31:54.588Z,9.681232
2022-08-22T07:32:54.561Z,9.681082
2022-08-22T07:33:54.569Z,9.681166
2022-08-22T07:34:54.560Z,9.680989
2022-08-22T07:35:54.524Z,9.681005
2022-08-22T07:36:54.527Z,9.680510
2022-08-22T07:37:54.521Z,9.680869
2022-08-22T07:38:54.510Z,9.680888
2022-08-22T07:39:54.569Z,9.680936
2022-08-22T07:40:54.512Z,9.680984
2022-08-22T07:41:54.495Z,9.680992
2022-08-22T07:42:54.504Z,9.680876
2022-08-22T07:43:54.476Z,9.680812
2022-08-22T07:44:54.469Z,9.681075
2022-08-22T07:45:54.458Z,9.681143
2022-08-22T07:46:54.468Z,9.681059
2022-08-22T07:47:54.506Z,9.681180
2022-08-22T07:49:08.503Z,9.681177
2022-08-22T07:49:55.442Z,9.681303
2022-08-22T07:50:54.421Z,9.681205
2022-08-22T07:51:54.444Z,9.681394
2022-08-22T07:52:54.419Z,9.681289
2022-08-22T07:53:57.956Z,9.680830
2022-08-22T07:54:55.420Z,9.680586
2022-08-22T07:55:54.395Z,9.681006
2022-08-22T07:56:54.381Z,9.681389
2022-08-22T07:57:54.393Z,9.680989
2022-08-22T07:58:54.366Z,9.681012
2022-08-22T07:59:54.379Z,9.681242
2022-08-22T08:00:54.360Z,9.681397
2022-08-22T08:01:54.446Z,9.681380
2022-08-22T08:02:54.342Z,9.681376
2022-08-22T08:03:54.333Z,9.681376
2022-08-22T08:04:54.336Z,9.681376
2022-08-22T08:05:54.335Z,9.680664
2022-08-22T08:06:54.308Z,9.681237
2022-08-22T08:07:54.307Z,9.681237
2022-08-22T08:08:54.295Z,9.680763
2022-08-22T08:09:54.303Z,9.680623
2022-08-22T08:10:54.314Z,9.680893
2022-08-22T08:11:54.281Z,9.681671
2022-08-22T08:13:02.565Z,9.681530
2022-08-22T08:13:54.263Z,9.681771
2022-08-22T08:14:54.247Z,9.681389
2022-08-22T08:15:54.246Z,9.681273
2022-08-22T08:16:54.254Z,9.681087
2022-08-22T08:17:54.232Z,9.681236
2022-08-22T08:18:54.225Z,9.681254
2022-08-22T08:19:54.445Z,9.681233
2022-08-22T08:20:54.208Z,9.681368
2022-08-22T08:21:54.206Z,9.681217
2022-08-22T08:22:54.205Z,9.681273
2022-08-22T08:23:54.208Z,9.681237
2022-08-22T08:24:54.188Z,9.681675
2022-08-22T08:25:54.172Z,9.681864
2022-08-22T08:26:54.168Z,9.681675
2022-08-22T08:27:54.166Z,9.681450
2022-08-22T08:28:54.175Z,9.681457
2022-08-22T08:29:54.144Z,9.681613
2022-08-22T08:30:54.138Z,9.681176
2022-08-22T08:31:54.173Z,9.681410
2022-08-22T08:32:57.520Z,9.681127
2022-08-22T08:33:55.121Z,9.681255
2022-08-22T08:34:54.128Z,9.681248
2022-08-22T08:36:02.390Z,9.681163
2022-08-22T08:36:55.113Z,9.681158
2022-08-22T08:37:54.097Z,9.681223
2022-08-22T08:38:54.071Z,9.681035
2022-08-22T08:39:54.103Z,9.681003
2022-08-22T08:40:54.080Z,9.680970
2022-08-22T08:41:54.097Z,9.681275
2022-08-22T08:42:54.042Z,9.681103
2022-08-22T08:43:54.038Z,9.681385
2022-08-22T08:44:54.026Z,9.681163
2022-08-22T08:45:59.061Z,9.681292
2022-08-22T08:46:55.474Z,9.681354
2022-08-22T08:47:54.036Z,9.681017
2022-08-22T08:48:54.005Z,9.681119
2022-08-22T08:49:54.000Z,9.681119
2022-08-22T08:50:53.992Z,9.681348
2022-08-22T08:51:53.980Z,9.681332
2022-08-22T08:52:53.976Z,9.681439
2022-08-22T08:53:53.984Z,9.681559
2022-08-22T08:54:53.958Z,9.681358
2022-08-22T08:55:53.956Z,9.681407
2022-08-22T08:56:54.403Z,9.681619
2022-08-22T08:57:53.957Z,9.681478
2022-08-22T08:58:53.954Z,9.681130
2022-08-22T08:59:53.959Z,9.680959
2022-08-22T09:00:53.959Z,9.680786
2022-08-22T09:01:53.927Z,9.680787
2022-08-22T09:02:53.901Z,9.680919
2022-08-22T09:03:53.897Z,9.681281
2022-08-22T09:04:53.925Z,9.681343
2022-08-22T09:05:53.885Z,9.681495
2022-08-22T09:06:54.803Z,9.681136
2022-08-22T09:07:54.871Z,9.681223
2022-08-22T09:08:55.817Z,9.681306
2022-08-22T09:09:54.250Z,9.681218
2022-08-22T09:10:53.866Z,9.681078
2022-08-22T09:11:53.877Z,9.680995
2022-08-22T09:13:11.670Z,9.681131
2022-08-22T09:13:54.833Z,9.681072
2022-08-22T09:14:53.817Z,9.681008
2022-08-22T09:16:02.336Z,9.681078
2022-08-22T09:16:53.830Z,9.681274
2022-08-22T09:17:53.844Z,9.681344
2022-08-22T09:18:53.806Z,9.681174
2022-08-22T09:19:53.815Z,9.681215
2022-08-22T09:20:53.778Z,9.681223
2022-08-22T09:21:53.814Z,9.681123
2022-08-22T09:22:53.757Z,9.681219
2022-08-22T09:23:53.766Z,9.681067
2022-08-22T09:24:53.757Z,9.681220
2022-08-22T09:25:53.768Z,9.681312
2022-08-22T09:26:53.761Z,9.681298
2022-08-22T09:27:53.773Z,9.681294
2022-08-22T09:28:53.719Z,9.681013
2022-08-22T09:29:55.169Z,9.680941
2022-08-22T09:31:59.676Z,9.680907
2022-08-22T09:32:54.689Z,9.681157
2022-08-22T09:33:53.686Z,9.680965
2022-08-22T09:34:53.675Z,9.680917
2022-08-22T09:35:53.665Z,9.681128
2022-08-22T09:36:53.684Z,9.681065
2022-08-22T09:37:53.702Z,9.680983
2022-08-22T09:38:53.642Z,9.680724
2022-08-22T09:39:53.707Z,9.680871
2022-08-22T09:40:53.631Z,9.681113
2022-08-22T09:41:53.654Z,9.681136
2022-08-22T09:42:53.623Z,9.681507
2022-08-22T09:43:53.633Z,9.681639
2022-08-22T09:44:53.616Z,9.681457
2022-08-22T09:45:53.598Z,9.681450
2022-08-22T09:46:53.589Z,9.681380
2022-08-22T09:47:53.580Z,9.680964
2022-08-22T09:48:54.577Z,9.681104
2022-08-22T09:49:53.599Z,9.681314
2022-08-22T09:51:01.605Z,9.681258
2022-08-22T09:51:54.554Z,9.681024
2022-08-22T09:52:53.606Z,9.681116
2022-08-22T09:53:53.552Z,9.681126
2022-08-22T09:54:53.542Z,9.680954
2022-08-22T09:55:53.528Z,9.681116
2022-08-22T09:56:53.534Z,9.681784
2022-08-22T09:57:53.507Z,9.681651
2022-08-22T09:58:53.526Z,9.681649
2022-08-22T09:59:53.494Z,9.681175
2022-08-22T10:00:55.015Z,9.681353
2022-08-22T10:01:53.485Z,9.680973
2022-08-22T10:02:53.468Z,9.681419
2022-08-22T10:03:53.468Z,9.681425
2022-08-22T10:04:53.458Z,9.681531
2022-08-22T10:05:53.477Z,9.681400
2022-08-22T10:06:53.448Z,9.681211
2022-08-22T10:07:53.444Z,9.681161
2022-08-22T10:08:53.462Z,9.681458
2022-08-22T10:09:53.627Z,9.681075
2022-08-22T10:10:53.421Z,9.680584
2022-08-22T10:11:53.431Z,9.681155
2022-08-22T10:12:53.425Z,9.681085
2022-08-22T10:14:00.669Z,9.681557
2022-08-22T10:14:54.391Z,9.681330
2022-08-22T10:15:53.387Z,9.681156
2022-08-22T10:16:53.382Z,9.681291
2022-08-22T10:17:53.425Z,9.682259
2022-08-22T10:18:55.394Z,9.681704
2022-08-22T10:19:53.376Z,9.681277
2022-08-22T10:20:53.355Z,9.681227
2022-08-22T10:21:53.349Z,9.680519
2022-08-22T10:22:53.338Z,9.680738
2022-08-22T10:23:53.357Z,9.680935
2022-08-22T10:24:53.343Z,9.681230
2022-08-22T10:25:53.321Z,9.680763
2022-08-22T10:26:53.308Z,9.680983
2022-08-22T10:27:53.333Z,9.681284
2022-08-22T10:28:53.297Z,9.681205
2022-08-22T10:29:53.316Z,9.681558
2022-08-22T10:30:53.284Z,9.680478
2022-08-22T10:31:58.998Z,9.680693
2022-08-22T10:32:54.328Z,9.681422
2022-08-22T10:33:53.267Z,9.681765
2022-08-22T10:34:53.260Z,9.681465
2022-08-22T10:35:53.268Z,9.681925
2022-08-22T10:36:53.239Z,9.681550
2022-08-22T10:37:53.238Z,9.681761
2022-08-22T10:38:53.226Z,9.681254
2022-08-22T10:39:53.256Z,9.681239
2022-08-22T10:40:53.270Z,9.681360
2022-08-22T10:41:53.235Z,9.681286
2022-08-22T10:42:53.638Z,9.681419
2022-08-22T10:43:56.579Z,9.681129
2022-08-22T10:44:54.188Z,9.681411
2022-08-22T10:45:53.178Z,9.681431
2022-08-22T10:46:53.198Z,9.681524
2022-08-22T10:47:53.161Z,9.681263
2022-08-22T10:48:53.154Z,9.681212
2022-08-22T10:49:53.154Z,9.681098
2022-08-22T10:50:53.143Z,9.681293
2022-08-22T10:51:53.141Z,9.681413
2022-08-22T10:52:53.148Z,9.681273
2022-08-22T10:53:53.118Z,9.681488
2022-08-22T10:54:53.114Z,9.681477
2022-08-22T10:55:53.106Z,9.681358
2022-08-22T10:56:53.102Z,9.681173
2022-08-22T10:57:53.172Z,9.681162
2022-08-22T10:58:53.098Z,9.681172
2022-08-22T10:59:53.079Z,9.681187
2022-08-22T11:00:53.092Z,9.681037
2022-08-22T11:01:53.132Z,9.680951
2022-08-22T11:02:53.213Z,9.681118
2022-08-22T11:03:53.052Z,9.681180
2022-08-22T11:04:53.033Z,9.681356
2022-08-22T11:05:53.037Z,9.681237
2022-08-22T11:06:53.025Z,9.681187
2022-08-22T11:07:53.041Z,9.681092
2022-08-22T11:08:53.033Z,9.681043
2022-08-22T11:09:53.029Z,9.681341
2022-08-22T11:10:53.003Z,9.681049
2022-08-22T11:11:52.990Z,9.680928
2022-08-22T11:12:52.985Z,9.681091
2022-08-22T11:13:52.998Z,9.681095
2022-08-22T11:14:52.964Z,9.681122
2022-08-22T11:15:52.961Z,9.681183
2022-08-22T11:16:55.241Z,9.681183
2022-08-22T11:17:53.899Z,9.681291
2022-08-22T11:19:01.968Z,9.681340
2022-08-22T11:19:52.935Z,9.681095
2022-08-22T11:20:52.924Z,9.680976
2022-08-22T11:21:52.922Z,9.680918
2022-08-22T11:22:55.700Z,9.680986
2022-08-22T11:23:52.915Z,9.681039
2022-08-22T11:24:55.679Z,9.681148
2022-08-22T11:25:53.952Z,9.681122
2022-08-22T11:26:52.895Z,9.681270
2022-08-22T11:27:52.875Z,9.680964
2022-08-22T11:28:52.895Z,9.680854
2022-08-22T11:29:52.874Z,9.680877
2022-08-22T11:30:52.874Z,9.680798
2022-08-22T11:31:52.880Z,9.681157
2022-08-22T11:32:56.118Z,9.680863
2022-08-22T11:33:53.856Z,9.680939
2022-08-22T11:34:52.836Z,9.680596
2022-08-22T11:35:52.827Z,9.680802
2022-08-22T11:36:52.818Z,9.681020
2022-08-22T11:37:54.807Z,9.681148
2022-08-22T11:38:52.802Z,9.681211
2022-08-22T11:39:52.846Z,9.681188
2022-08-22T11:40:52.802Z,9.681083
2022-08-22T11:41:53.141Z,9.681048